sensor_id;sensor_type;location;lat;lon;timestamp;pressure;altitude;pressure_sealevel;temperature;humidity
17309;BME280;8772;42.804;23.426;2022-08-01T00:00:18;94574.91;;;15.97;100.00
17309;BME280;8772;42.804;23.426;2022-08-01T00:02:45;94574.59;;;15.95;100.00
17309;BME280;8772;42.804;23.426;2022-08-01T00:05:12;94573.84;;;15.94;100.00
17309;BME280;8772;42.804;23.426;2022-08-01T00:07:38;94569.19;;;15.86;100.00
17309;BME280;8772;42.804;23.426;2022-08-01T00:10:07;94571.59;;;15.93;100.00
17309;BME280;8772;42.804;23.426;2022-08-01T00:12:35;94562.31;;;15.94;100.00
17309;BME280;8772;42.804;23.426;2022-08-01T00:15:04;94576.41;;;15.98;100.00
17309;BME280;8772;42.804;23.426;2022-08-01T00:17:32;94574.31;;;15.93;100.00
17309;BME280;8772;42.804;23.426;2022-08-01T00:19:59;94581.19;;;15.94;100.00
17309;BME280;8772;42.804;23.426;2022-08-01T00:22:27;94585.34;;;15.86;100.00
17309;BME280;8772;42.804;23.426;2022-08-01T00:24:54;94574.50;;;15.68;100.00
17309;BME280;8772;42.804;23.426;2022-08-01T00:27:21;94573.03;;;15.76;100.00
17309;BME280;8772;42.804;23.426;2022-08-01T00:29:48;94575.41;;;15.74;100.00
17309;BME280;8772;42.804;23.426;2022-08-01T00:32:17;94572.72;;;15.74;100.00
17309;BME280;8772;42.804;23.426;2022-08-01T00:34:44;94568.81;;;15.66;100.00
17309;BME280;8772;42.804;23.426;2022-08-01T00:37:11;94561.34;;;15.70;100.00
17309;BME280;8772;42.804;23.426;2022-08-01T00:39:38;94560.44;;;15.73;100.00
17309;BME280;8772;42.804;23.426;2022-08-01T00:42:06;94563.59;;;15.71;100.00
17309;BME280;8772;42.804;23.426;2022-08-01T00:44:33;94561.84;;;15.47;100.00
17309;BME280;8772;42.804;23.426;2022-08-01T00:47:01;94548.66;;;15.40;100.00
17309;BME280;8772;42.804;23.426;2022-08-01T00:49:29;94550.75;;;15.45;100.00
17309;BME280;8772;42.804;23.426;2022-08-01T00:51:56;94554.47;;;15.39;100.00
17309;BME280;8772;42.804;23.426;2022-08-01T00:54:25;94552.16;;;15.28;100.00
17309;BME280;8772;42.804;23.426;2022-08-01T00:56:52;94541.31;;;15.19;100.00
17309;BME280;8772;42.804;23.426;2022-08-01T00:59:21;94549.69;;;15.21;100.00
17309;BME280;8772;42.804;23.426;2022-08-01T01:01:49;94538.75;;;15.16;100.00
17309;BME280;8772;42.804;23.426;2022-08-01T01:07:45;94536.53;;;15.23;100.00
17309;BME280;8772;42.804;23.426;2022-08-01T01:10:17;94539.69;;;15.22;100.00
17309;BME280;8772;42.804;23.426;2022-08-01T01:12:51;94531.03;;;15.27;100.00
17309;BME280;8772;42.804;23.426;2022-08-01T01:15:24;94541.78;;;15.27;100.00
17309;BME280;8772;42.804;23.426;2022-08-01T01:17:57;94539.44;;;15.07;100.00
17309;BME280;8772;42.804;23.426;2022-08-01T01:20:29;94539.31;;;15.11;100.00
17309;BME280;8772;42.804;23.426;2022-08-01T01:23:12;94537.63;;;15.04;100.00
17309;BME280;8772;42.804;23.426;2022-08-01T01:26:14;94544.66;;;15.02;100.00
17309;BME280;8772;42.804;23.426;2022-08-01T01:28:59;94537.56;;;14.95;100.00
17309;BME280;8772;42.804;23.426;2022-08-01T01:31:29;94535.69;;;15.05;100.00
17309;BME280;8772;42.804;23.426;2022-08-01T01:33:58;94534.66;;;15.11;100.00
17309;BME280;8772;42.804;23.426;2022-08-01T01:36:26;94541.06;;;15.05;100.00
17309;BME280;8772;42.804;23.426;2022-08-01T01:38:55;94537.94;;;15.06;100.00
17309;BME280;8772;42.804;23.426;2022-08-01T01:41:24;94529.06;;;14.97;100.00
17309;BME280;8772;42.804;23.426;2022-08-01T01:43:51;94522.91;;;14.96;100.00
17309;BME280;8772;42.804;23.426;2022-08-01T01:46:23;94520.81;;;14.91;100.00
17309;BME280;8772;42.804;23.426;2022-08-01T01:48:54;94508.16;;;14.79;100.00
17309;BME280;8772;42.804;23.426;2022-08-01T01:51:24;94507.03;;;14.68;100.00
17309;BME280;8772;42.804;23.426;2022-08-01T01:53:53;94509.91;;;14.73;100.00
17309;BME280;8772;42.804;23.426;2022-08-01T01:56:21;94515.47;;;14.79;100.00
17309;BME280;8772;42.804;23.426;2022-08-01T01:58:52;94521.16;;;14.81;100.00
17309;BME280;8772;42.804;23.426;2022-08-01T02:01:22;94517.47;;;14.66;100.00
17309;BME280;8772;42.804;23.426;2022-08-01T02:03:51;94523.63;;;14.66;100.00
17309;BME280;8772;42.804;23.426;2022-08-01T02:06:19;94510.41;;;14.59;100.00
17309;BME280;8772;42.804;23.426;2022-08-01T02:08:47;94515.91;;;14.56;100.00
17309;BME280;8772;42.804;23.426;2022-08-01T02:11:15;94521.44;;;14.52;100.00
17309;BME280;8772;42.804;23.426;2022-08-01T02:13:47;94514.09;;;14.53;100.00
17309;BME280;8772;42.804;23.426;2022-08-01T02:16:15;94515.28;;;14.52;100.00
17309;BME280;8772;42.804;23.426;2022-08-01T02:18:45;94519.91;;;14.51;100.00
17309;BME280;8772;42.804;23.426;2022-08-01T02:21:13;94514.38;;;14.46;100.00
17309;BME280;8772;42.804;23.426;2022-08-01T02:23:43;94517.41;;;14.35;100.00
17309;BME280;8772;42.804;23.426;2022-08-01T02:26:14;94509.63;;;14.37;100.00
17309;BME280;8772;42.804;23.426;2022-08-01T02:28:46;94510.78;;;14.27;100.00
17309;BME280;8772;42.804;23.426;2022-08-01T02:31:17;94517.75;;;14.25;100.00
17309;BME280;8772;42.804;23.426;2022-08-01T02:33:52;94516.50;;;14.17;100.00
17309;BME280;8772;42.804;23.426;2022-08-01T02:36:22;94522.38;;;14.24;100.00
17309;BME280;8772;42.804;23.426;2022-08-01T02:38:50;94513.69;;;14.20;100.00
17309;BME280;8772;42.804;23.426;2022-08-01T02:41:20;94517.34;;;14.14;100.00
17309;BME280;8772;42.804;23.426;2022-08-01T02:43:52;94500.38;;;14.04;100.00
17309;BME280;8772;42.804;23.426;2022-08-01T02:46:24;94504.66;;;14.14;100.00
17309;BME280;8772;42.804;23.426;2022-08-01T02:48:55;94504.66;;;14.14;100.00
17309;BME280;8772;42.804;23.426;2022-08-01T02:51:25;94509.38;;;14.10;100.00
17309;BME280;8772;42.804;23.426;2022-08-01T02:53:54;94498.31;;;14.08;100.00
17309;BME280;8772;42.804;23.426;2022-08-01T02:56:23;94498.94;;;14.12;100.00
17309;BME280;8772;42.804;23.426;2022-08-01T02:59:02;94510.03;;;14.14;100.00
17309;BME280;8772;42.804;23.426;2022-08-01T03:01:32;94502.94;;;14.08;100.00
17309;BME280;8772;42.804;23.426;2022-08-01T03:04:02;94500.06;;;14.02;100.00
17309;BME280;8772;42.804;23.426;2022-08-01T03:06:31;94495.41;;;14.03;100.00
17309;BME280;8772;42.804;23.426;2022-08-01T03:09:00;94503.31;;;13.85;100.00
17309;BME280;8772;42.804;23.426;2022-08-01T03:11:28;94500.84;;;13.90;100.00
17309;BME280;8772;42.804;23.426;2022-08-01T03:13:56;94507.16;;;13.96;100.00
17309;BME280;8772;42.804;23.426;2022-08-01T03:16:27;94508.81;;;13.81;100.00
17309;BME280;8772;42.804;23.426;2022-08-01T03:18:56;94511.38;;;13.85;100.00
17309;BME280;8772;42.804;23.426;2022-08-01T03:21:26;94518.38;;;13.82;100.00
17309;BME280;8772;42.804;23.426;2022-08-01T03:23:55;94511.59;;;13.78;100.00
17309;BME280;8772;42.804;23.426;2022-08-01T03:26:26;94513.31;;;13.84;100.00
17309;BME280;8772;42.804;23.426;2022-08-01T03:28:57;94507.41;;;13.89;100.00
17309;BME280;8772;42.804;23.426;2022-08-01T03:31:25;94512.88;;;13.86;100.00
17309;BME280;8772;42.804;23.426;2022-08-01T03:33:53;94513.31;;;13.84;100.00
17309;BME280;8772;42.804;23.426;2022-08-01T03:36:22;94519.00;;;13.86;100.00
17309;BME280;8772;42.804;23.426;2022-08-01T03:38:56;94523.53;;;13.89;100.00
17309;BME280;8772;42.804;23.426;2022-08-01T03:41:26;94528.97;;;13.98;100.00
17309;BME280;8772;42.804;23.426;2022-08-01T03:43:56;94520.03;;;14.01;100.00
17309;BME280;8772;42.804;23.426;2022-08-01T03:46:30;94514.56;;;14.05;100.00
17309;BME280;8772;42.804;23.426;2022-08-01T03:49:03;94509.84;;;14.09;100.00
17309;BME280;8772;42.804;23.426;2022-08-01T03:51:33;94519.72;;;14.12;100.00
17309;BME280;8772;42.804;23.426;2022-08-01T03:54:02;94515.50;;;14.23;100.00
17309;BME280;8772;42.804;23.426;2022-08-01T03:56:31;94523.09;;;14.37;100.00
17309;BME280;8772;42.804;23.426;2022-08-01T03:58:59;94533.72;;;14.41;100.00
17309;BME280;8772;42.804;23.426;2022-08-01T04:01:28;94529.13;;;14.41;100.00
17309;BME280;8772;42.804;23.426;2022-08-01T04:03:58;94525.56;;;14.44;100.00
17309;BME280;8772;42.804;23.426;2022-08-01T04:06:25;94528.66;;;14.43;100.00
17309;BME280;8772;42.804;23.426;2022-08-01T04:08:52;94530.06;;;14.47;100.00
17309;BME280;8772;42.804;23.426;2022-08-01T04:11:25;94531.56;;;14.48;100.00
17309;BME280;8772;42.804;23.426;2022-08-01T04:13:53;94522.59;;;14.51;100.00
17309;BME280;8772;42.804;23.426;2022-08-01T04:16:21;94516.28;;;14.45;100.00
17309;BME280;8772;42.804;23.426;2022-08-01T04:18:48;94521.94;;;14.60;100.00
17309;BME280;8772;42.804;23.426;2022-08-01T04:21:17;94520.28;;;14.62;100.00
17309;BME280;8772;42.804;23.426;2022-08-01T04:23:46;94532.94;;;14.74;100.00
17309;BME280;8772;42.804;23.426;2022-08-01T04:26:14;94532.94;;;14.74;100.00
17309;BME280;8772;42.804;23.426;2022-08-01T04:28:44;94532.69;;;14.81;100.00
17309;BME280;8772;42.804;23.426;2022-08-01T04:31:14;94524.94;;;14.83;100.00
17309;BME280;8772;42.804;23.426;2022-08-01T04:33:45;94527.69;;;14.92;100.00
17309;BME280;8772;42.804;23.426;2022-08-01T04:36:13;94522.91;;;14.96;100.00
17309;BME280;8772;42.804;23.426;2022-08-01T04:38:43;94521.19;;;15.02;100.00
17309;BME280;8772;42.804;23.426;2022-08-01T04:41:13;94528.44;;;15.14;100.00
17309;BME280;8772;42.804;23.426;2022-08-01T04:43:41;94528.56;;;15.20;100.00
17309;BME280;8772;42.804;23.426;2022-08-01T04:46:11;94533.53;;;15.21;100.00
17309;BME280;8772;42.804;23.426;2022-08-01T04:48:38;94544.41;;;15.30;100.00
17309;BME280;8772;42.804;23.426;2022-08-01T04:51:11;94539.63;;;15.34;100.00
17309;BME280;8772;42.804;23.426;2022-08-01T04:53:41;94535.53;;;15.30;100.00
17309;BME280;8772;42.804;23.426;2022-08-01T04:56:08;94537.03;;;15.31;100.00
17309;BME280;8772;42.804;23.426;2022-08-01T04:58:38;94540.28;;;15.47;100.00
17309;BME280;8772;42.804;23.426;2022-08-01T05:01:06;94528.34;;;15.57;100.00
17309;BME280;8772;42.804;23.426;2022-08-01T05:03:34;94528.69;;;15.68;100.00
17309;BME280;8772;42.804;23.426;2022-08-01T05:06:02;94522.13;;;15.78;100.00
17309;BME280;8772;42.804;23.426;2022-08-01T05:08:29;94529.06;;;15.97;100.00
17309;BME280;8772;42.804;23.426;2022-08-01T05:10:56;94525.78;;;16.11;100.00
17309;BME280;8772;42.804;23.426;2022-08-01T05:13:23;94521.00;;;16.24;100.00
17309;BME280;8772;42.804;23.426;2022-08-01T05:15:51;94530.97;;;16.45;100.00
17309;BME280;8772;42.804;23.426;2022-08-01T05:18:18;94523.16;;;16.65;100.00
17309;BME280;8772;42.804;23.426;2022-08-01T05:20:46;94521.34;;;16.80;100.00
17309;BME280;8772;42.804;23.426;2022-08-01T05:23:13;94531.53;;;16.94;100.00
17309;BME280;8772;42.804;23.426;2022-08-01T05:25:40;94535.88;;;17.09;100.00
17309;BME280;8772;42.804;23.426;2022-08-01T05:28:07;94532.56;;;17.14;100.00
17309;BME280;8772;42.804;23.426;2022-08-01T05:30:34;94534.47;;;17.23;100.00
17309;BME280;8772;42.804;23.426;2022-08-01T05:33:01;94537.78;;;17.36;100.00
17309;BME280;8772;42.804;23.426;2022-08-01T05:35:28;94535.97;;;17.42;100.00
17309;BME280;8772;42.804;23.426;2022-08-01T05:37:57;94536.97;;;17.53;100.00
17309;BME280;8772;42.804;23.426;2022-08-01T05:40:24;94541.91;;;17.64;100.00
17309;BME280;8772;42.804;23.426;2022-08-01T05:42:51;94530.59;;;17.74;100.00
17309;BME280;8772;42.804;23.426;2022-08-01T05:45:18;94543.59;;;17.84;100.00
17309;BME280;8772;42.804;23.426;2022-08-01T05:47:45;94530.16;;;17.99;100.00
17309;BME280;8772;42.804;23.426;2022-08-01T05:50:12;94538.03;;;18.11;100.00
17309;BME280;8772;42.804;23.426;2022-08-01T05:52:39;94539.50;;;18.21;100.00
17309;BME280;8772;42.804;23.426;2022-08-01T05:55:08;94531.63;;;18.32;100.00
17309;BME280;8772;42.804;23.426;2022-08-01T05:57:36;94538.22;;;18.40;100.00
17309;BME280;8772;42.804;23.426;2022-08-01T06:00:03;94539.53;;;18.45;100.00
17309;BME280;8772;42.804;23.426;2022-08-01T06:02:30;94533.59;;;18.55;100.00
17309;BME280;8772;42.804;23.426;2022-08-01T06:04:57;94532.69;;;18.73;100.00
17309;BME280;8772;42.804;23.426;2022-08-01T06:07:24;94530.09;;;18.78;100.00
17309;BME280;8772;42.804;23.426;2022-08-01T06:09:51;94532.72;;;18.87;100.00
17309;BME280;8772;42.804;23.426;2022-08-01T06:12:19;94529.91;;;18.96;100.00
17309;BME280;8772;42.804;23.426;2022-08-01T06:14:46;94527.13;;;19.05;100.00
17309;BME280;8772;42.804;23.426;2022-08-01T06:17:13;94517.88;;;19.12;100.00
17309;BME280;8772;42.804;23.426;2022-08-01T06:19:40;94534.38;;;19.23;100.00
17309;BME280;8772;42.804;23.426;2022-08-01T06:22:07;94527.44;;;19.36;100.00
17309;BME280;8772;42.804;23.426;2022-08-01T06:24:34;94539.41;;;19.44;100.00
17309;BME280;8772;42.804;23.426;2022-08-01T06:27:01;94528.47;;;19.53;100.00
17309;BME280;8772;42.804;23.426;2022-08-01T06:29:31;94538.84;;;19.69;100.00
17309;BME280;8772;42.804;23.426;2022-08-01T06:31:58;94540.41;;;19.76;100.00
17309;BME280;8772;42.804;23.426;2022-08-01T06:34:25;94533.81;;;19.97;100.00
17309;BME280;8772;42.804;23.426;2022-08-01T06:36:52;94528.34;;;20.11;100.00
17309;BME280;8772;42.804;23.426;2022-08-01T06:39:19;94528.50;;;20.22;98.67
17309;BME280;8772;42.804;23.426;2022-08-01T06:41:46;94534.28;;;20.29;91.43
17309;BME280;8772;42.804;23.426;2022-08-01T06:44:13;94522.28;;;20.36;89.71
17309;BME280;8772;42.804;23.426;2022-08-01T06:46:42;94513.47;;;20.41;99.20
17309;BME280;8772;42.804;23.426;2022-08-01T06:49:09;94509.09;;;20.49;91.70
17309;BME280;8772;42.804;23.426;2022-08-01T06:51:35;94516.16;;;20.61;90.25
17309;BME280;8772;42.804;23.426;2022-08-01T06:54:02;94514.13;;;20.76;81.81
17309;BME280;8772;42.804;23.426;2022-08-01T06:56:29;94508.34;;;20.88;83.53
17309;BME280;8772;42.804;23.426;2022-08-01T06:58:56;94498.88;;;21.04;83.40
17309;BME280;8772;42.804;23.426;2022-08-01T07:01:26;94501.09;;;21.05;79.43
17309;BME280;8772;42.804;23.426;2022-08-01T07:03:55;94501.44;;;21.13;76.57
17309;BME280;8772;42.804;23.426;2022-08-01T07:06:23;94492.63;;;21.23;75.97
17309;BME280;8772;42.804;23.426;2022-08-01T07:08:50;94497.66;;;21.36;77.96
17309;BME280;8772;42.804;23.426;2022-08-01T07:11:18;94499.28;;;21.53;75.95
17309;BME280;8772;42.804;23.426;2022-08-01T07:13:45;94495.19;;;21.63;77.96
17309;BME280;8772;42.804;23.426;2022-08-01T07:16:13;94494.09;;;21.81;75.50
17309;BME280;8772;42.804;23.426;2022-08-01T07:18:40;94497.16;;;21.94;64.11
17309;BME280;8772;42.804;23.426;2022-08-01T07:21:09;94509.66;;;22.17;61.45
17309;BME280;8772;42.804;23.426;2022-08-01T07:23:35;94492.66;;;22.33;57.36
17309;BME280;8772;42.804;23.426;2022-08-01T07:26:03;94494.00;;;22.53;58.38
17309;BME280;8772;42.804;23.426;2022-08-01T07:28:31;94497.81;;;22.78;55.62
17309;BME280;8772;42.804;23.426;2022-08-01T07:30:58;94496.34;;;22.88;53.81
17309;BME280;8772;42.804;23.426;2022-08-01T07:33:25;94486.69;;;22.92;54.57
17309;BME280;8772;42.804;23.426;2022-08-01T07:35:52;94492.41;;;23.00;55.08
17309;BME280;8772;42.804;23.426;2022-08-01T07:38:20;94485.72;;;23.06;55.57
17309;BME280;8772;42.804;23.426;2022-08-01T07:40:47;94481.75;;;23.07;53.54
17309;BME280;8772;42.804;23.426;2022-08-01T07:43:14;94481.31;;;23.14;53.33
17309;BME280;8772;42.804;23.426;2022-08-01T07:45:41;94477.09;;;23.13;52.37
17309;BME280;8772;42.804;23.426;2022-08-01T07:48:08;94482.06;;;23.26;52.77
17309;BME280;8772;42.804;23.426;2022-08-01T07:50:35;94489.75;;;23.27;53.11
17309;BME280;8772;42.804;23.426;2022-08-01T07:53:02;94479.34;;;23.31;51.59
17309;BME280;8772;42.804;23.426;2022-08-01T07:55:31;94475.38;;;23.32;52.67
17309;BME280;8772;42.804;23.426;2022-08-01T07:57:58;94476.84;;;23.22;50.75
17309;BME280;8772;42.804;23.426;2022-08-01T08:00:25;94467.69;;;23.31;51.85
17309;BME280;8772;42.804;23.426;2022-08-01T08:02:52;94466.94;;;23.30;51.18
17309;BME280;8772;42.804;23.426;2022-08-01T08:05:20;94469.19;;;23.37;51.60
17309;BME280;8772;42.804;23.426;2022-08-01T08:07:47;94472.88;;;23.34;51.25
17309;BME280;8772;42.804;23.426;2022-08-01T08:10:14;94472.66;;;23.54;48.87
17309;BME280;8772;42.804;23.426;2022-08-01T08:12:42;94470.91;;;23.62;52.10
17309;BME280;8772;42.804;23.426;2022-08-01T08:15:11;94473.66;;;23.62;48.97
17309;BME280;8772;42.804;23.426;2022-08-01T08:17:38;94470.63;;;23.71;50.72
17309;BME280;8772;42.804;23.426;2022-08-01T08:20:07;94482.34;;;23.88;49.90
17309;BME280;8772;42.804;23.426;2022-08-01T08:22:35;94480.03;;;24.14;48.49
17309;BME280;8772;42.804;23.426;2022-08-01T08:25:02;94478.56;;;24.13;48.22
17309;BME280;8772;42.804;23.426;2022-08-01T08:27:30;94476.81;;;24.10;48.29
17309;BME280;8772;42.804;23.426;2022-08-01T08:29:58;94475.81;;;24.24;49.45
17309;BME280;8772;42.804;23.426;2022-08-01T08:32:25;94486.41;;;24.39;46.61
17309;BME280;8772;42.804;23.426;2022-08-01T08:34:52;94468.75;;;24.45;47.94
17309;BME280;8772;42.804;23.426;2022-08-01T08:37:19;94463.28;;;24.56;47.06
17309;BME280;8772;42.804;23.426;2022-08-01T08:39:46;94467.69;;;24.70;46.98
17309;BME280;8772;42.804;23.426;2022-08-01T08:42:13;94467.06;;;24.93;46.87
17309;BME280;8772;42.804;23.426;2022-08-01T08:44:42;94465.94;;;25.13;44.65
17309;BME280;8772;42.804;23.426;2022-08-01T08:47:12;94458.91;;;25.23;45.05
17309;BME280;8772;42.804;23.426;2022-08-01T08:49:42;94458.75;;;25.45;45.93
17309;BME280;8772;42.804;23.426;2022-08-01T08:52:10;94469.09;;;25.63;44.13
17309;BME280;8772;42.804;23.426;2022-08-01T08:54:38;94456.03;;;25.74;45.66
17309;BME280;8772;42.804;23.426;2022-08-01T08:57:08;94451.00;;;25.78;44.26
17309;BME280;8772;42.804;23.426;2022-08-01T08:59:36;94454.72;;;25.81;43.37
17309;BME280;8772;42.804;23.426;2022-08-01T09:02:03;94453.47;;;25.82;44.38
17309;BME280;8772;42.804;23.426;2022-08-01T09:04:32;94431.88;;;25.73;45.41
17309;BME280;8772;42.804;23.426;2022-08-01T09:07:00;94438.16;;;25.68;42.29
17309;BME280;8772;42.804;23.426;2022-08-01T09:09:26;94442.59;;;25.71;42.74
17309;BME280;8772;42.804;23.426;2022-08-01T09:11:54;94439.47;;;25.61;43.27
17309;BME280;8772;42.804;23.426;2022-08-01T09:14:21;94445.88;;;25.69;43.92
17309;BME280;8772;42.804;23.426;2022-08-01T09:16:59;94448.53;;;25.51;44.36
17309;BME280;8772;42.804;23.426;2022-08-01T09:19:36;94439.38;;;25.43;45.45
17309;BME280;8772;42.804;23.426;2022-08-01T09:22:06;94441.41;;;25.37;45.87
17309;BME280;8772;42.804;23.426;2022-08-01T09:24:34;94439.72;;;25.58;43.03
17309;BME280;8772;42.804;23.426;2022-08-01T09:27:15;94434.25;;;25.58;43.63
17309;BME280;8772;42.804;23.426;2022-08-01T09:29:43;94436.22;;;25.63;45.88
17309;BME280;8772;42.804;23.426;2022-08-01T09:32:11;94423.03;;;25.61;44.82
17309;BME280;8772;42.804;23.426;2022-08-01T09:34:42;94432.78;;;25.57;43.96
17309;BME280;8772;42.804;23.426;2022-08-01T09:37:09;94431.38;;;25.45;44.97
17309;BME280;8772;42.804;23.426;2022-08-01T09:39:45;94433.53;;;25.57;45.54
17309;BME280;8772;42.804;23.426;2022-08-01T09:42:24;94426.03;;;25.58;45.69
17309;BME280;8772;42.804;23.426;2022-08-01T09:44:51;94432.03;;;25.56;46.42
17309;BME280;8772;42.804;23.426;2022-08-01T09:47:20;94425.44;;;25.70;45.41
17309;BME280;8772;42.804;23.426;2022-08-01T09:49:55;94431.06;;;26.07;44.46
17309;BME280;8772;42.804;23.426;2022-08-01T09:52:24;94441.41;;;26.38;44.02
17309;BME280;8772;42.804;23.426;2022-08-01T09:54:53;94441.06;;;26.47;43.29
17309;BME280;8772;42.804;23.426;2022-08-01T09:57:20;94436.81;;;26.52;43.18
17309;BME280;8772;42.804;23.426;2022-08-01T09:59:50;94438.31;;;26.47;43.29
17309;BME280;8772;42.804;23.426;2022-08-01T10:02:28;94438.13;;;26.45;42.93
17309;BME280;8772;42.804;23.426;2022-08-01T10:04:58;94431.44;;;26.41;43.56
17309;BME280;8772;42.804;23.426;2022-08-01T10:07:25;94423.53;;;26.56;42.26
17309;BME280;8772;42.804;23.426;2022-08-01T10:09:52;94421.09;;;26.71;41.70
17309;BME280;8772;42.804;23.426;2022-08-01T10:12:21;94418.03;;;26.93;42.90
17309;BME280;8772;42.804;23.426;2022-08-01T10:14:50;94416.47;;;26.97;42.80
17309;BME280;8772;42.804;23.426;2022-08-01T10:17:19;94422.88;;;27.05;41.51
17309;BME280;8772;42.804;23.426;2022-08-01T10:19:47;94424.34;;;27.25;42.19
17309;BME280;8772;42.804;23.426;2022-08-01T10:22:18;94420.13;;;27.24;42.01
17309;BME280;8772;42.804;23.426;2022-08-01T10:24:47;94410.19;;;27.33;43.10
17309;BME280;8772;42.804;23.426;2022-08-01T10:27:16;94409.78;;;27.30;41.19
17309;BME280;8772;42.804;23.426;2022-08-01T10:29:47;94415.00;;;27.15;41.89
17309;BME280;8772;42.804;23.426;2022-08-01T10:32:17;94409.97;;;26.82;42.39
17309;BME280;8772;42.804;23.426;2022-08-01T10:34:44;94412.78;;;26.95;42.04
17309;BME280;8772;42.804;23.426;2022-08-01T10:37:12;94393.75;;;26.97;43.67
17309;BME280;8772;42.804;23.426;2022-08-01T10:39:41;94388.19;;;27.21;42.79
17309;BME280;8772;42.804;23.426;2022-08-01T10:42:10;94396.34;;;27.08;42.30
17309;BME280;8772;42.804;23.426;2022-08-01T10:44:38;94399.72;;;27.01;41.90
17309;BME280;8772;42.804;23.426;2022-08-01T10:47:09;94389.44;;;27.20;42.15
17309;BME280;8772;42.804;23.426;2022-08-01T10:49:41;94396.88;;;27.06;42.65
17309;BME280;8772;42.804;23.426;2022-08-01T10:52:14;94396.72;;;27.36;42.23
17309;BME280;8772;42.804;23.426;2022-08-01T10:54:43;94391.47;;;27.50;42.39
17309;BME280;8772;42.804;23.426;2022-08-01T10:57:10;94396.88;;;27.69;42.00
17309;BME280;8772;42.804;23.426;2022-08-01T10:59:48;94391.75;;;28.04;40.63
17309;BME280;8772;42.804;23.426;2022-08-01T11:02:26;94393.00;;;28.29;40.03
17309;BME280;8772;42.804;23.426;2022-08-01T11:04:56;94384.53;;;28.53;40.00
17309;BME280;8772;42.804;23.426;2022-08-01T11:07:38;94385.16;;;28.72;39.79
17309;BME280;8772;42.804;23.426;2022-08-01T11:10:19;94382.53;;;29.00;40.71
17309;BME280;8772;42.804;23.426;2022-08-01T11:12:48;94374.88;;;29.06;38.21
17309;BME280;8772;42.804;23.426;2022-08-01T11:15:23;94378.38;;;29.07;39.87
17309;BME280;8772;42.804;23.426;2022-08-01T11:17:57;94385.09;;;28.98;40.17
17309;BME280;8772;42.804;23.426;2022-08-01T11:20:26;94389.66;;;29.16;39.10
17309;BME280;8772;42.804;23.426;2022-08-01T11:23:26;94372.19;;;29.14;38.52
17309;BME280;8772;42.804;23.426;2022-08-01T11:26:10;94373.06;;;29.09;39.14
17309;BME280;8772;42.804;23.426;2022-08-01T11:28:37;94373.38;;;29.05;38.96
17309;BME280;8772;42.804;23.426;2022-08-01T11:31:29;94367.94;;;28.79;39.73
17309;BME280;8772;42.804;23.426;2022-08-01T11:33:57;94373.97;;;28.91;39.86
17309;BME280;8772;42.804;23.426;2022-08-01T11:36:25;94371.16;;;28.70;39.61
17309;BME280;8772;42.804;23.426;2022-08-01T11:39:16;94378.09;;;28.97;39.33
17309;BME280;8772;42.804;23.426;2022-08-01T11:41:46;94372.75;;;29.12;40.15
17309;BME280;8772;42.804;23.426;2022-08-01T11:44:19;94370.78;;;29.20;39.75
17309;BME280;8772;42.804;23.426;2022-08-01T11:46:52;94373.78;;;29.09;37.88
17309;BME280;8772;42.804;23.426;2022-08-01T11:49:26;94372.03;;;28.99;38.99
17309;BME280;8772;42.804;23.426;2022-08-01T11:51:58;94360.31;;;28.85;38.20
17309;BME280;8772;42.804;23.426;2022-08-01T11:54:26;94353.75;;;28.88;39.07
17309;BME280;8772;42.804;23.426;2022-08-01T11:56:57;94363.06;;;28.85;39.97
17309;BME280;8772;42.804;23.426;2022-08-01T11:59:25;94367.28;;;28.99;40.29
17309;BME280;8772;42.804;23.426;2022-08-01T12:01:52;94362.63;;;28.94;39.97
17309;BME280;8772;42.804;23.426;2022-08-01T12:04:20;94370.09;;;29.07;39.86
17309;BME280;8772;42.804;23.426;2022-08-01T12:06:47;94363.13;;;28.72;39.79
17309;BME280;8772;42.804;23.426;2022-08-01T12:09:19;94359.25;;;28.88;39.67
17309;BME280;8772;42.804;23.426;2022-08-01T12:11:46;94356.47;;;29.01;39.92
17309;BME280;8772;42.804;23.426;2022-08-01T12:14:19;94361.59;;;29.18;39.20
17309;BME280;8772;42.804;23.426;2022-08-01T12:16:52;94350.56;;;29.38;39.39
17309;BME280;8772;42.804;23.426;2022-08-01T12:19:21;94363.84;;;29.06;37.44
17309;BME280;8772;42.804;23.426;2022-08-01T12:22:08;94364.28;;;29.10;37.88
17309;BME280;8772;42.804;23.426;2022-08-01T12:24:36;94361.84;;;29.07;38.22
17309;BME280;8772;42.804;23.426;2022-08-01T12:27:04;94362.31;;;29.18;39.45
17309;BME280;8772;42.804;23.426;2022-08-01T12:29:34;94366.81;;;29.08;38.94
17309;BME280;8772;42.804;23.426;2022-08-01T12:32:01;94360.69;;;29.02;38.87
17309;BME280;8772;42.804;23.426;2022-08-01T12:34:31;94356.94;;;29.13;39.51
17309;BME280;8772;42.804;23.426;2022-08-01T12:37:01;94368.28;;;29.09;39.16
17309;BME280;8772;42.804;23.426;2022-08-01T12:39:32;94363.25;;;29.00;38.87
17309;BME280;8772;42.804;23.426;2022-08-01T12:42:05;94357.69;;;28.80;39.23
17309;BME280;8772;42.804;23.426;2022-08-01T12:44:34;94352.91;;;28.80;39.78
17309;BME280;8772;42.804;23.426;2022-08-01T12:47:02;94362.88;;;28.70;40.22
17309;BME280;8772;42.804;23.426;2022-08-01T12:49:31;94357.50;;;28.65;40.14
17309;BME280;8772;42.804;23.426;2022-08-01T12:51:59;94354.47;;;28.55;40.61
17309;BME280;8772;42.804;23.426;2022-08-01T12:54:26;94354.06;;;28.51;39.21
17309;BME280;8772;42.804;23.426;2022-08-01T12:56:53;94352.16;;;28.46;40.87
17309;BME280;8772;42.804;23.426;2022-08-01T12:59:22;94355.78;;;28.41;40.41
17309;BME280;8772;42.804;23.426;2022-08-01T13:01:52;94342.13;;;28.23;41.33
17309;BME280;8772;42.804;23.426;2022-08-01T13:04:20;94354.91;;;28.20;40.60
17309;BME280;8772;42.804;23.426;2022-08-01T13:06:47;94356.28;;;28.27;40.54
17309;BME280;8772;42.804;23.426;2022-08-01T13:09:15;94349.53;;;28.15;40.59